Time;durP1;ratioP1;P1;durP2;ratioP2;P2;SDS_P1;SDS_P2;PMS_P1;PMS_P2;Temp;Humidity;BMP_temperature;BMP_pressure;BME280_temperature;BME280_humidity;BME280_pressure;Samples;Min_cycle;Max_cycle;Signal;HPM_P1;HPM_P2
2023/03/19 00:01:45;;;;;;;18.08;14.80;;;13.90;95.50;;;;;;5009891;28;20018;-61
2023/03/19 00:04:31;;;;;;;20.42;15.68;;;14.00;95.50;;;;;;5008155;28;20406;-62
2023/03/19 00:07:17;;;;;;;27.52;16.83;;;13.90;95.50;;;;;;4992502;28;20029;-64
2023/03/19 00:10:03;;;;;;;20.83;16.98;;;13.90;95.60;;;;;;4996501;28;20022;-62
2023/03/19 00:12:49;;;;;;;22.65;16.58;;;13.90;95.60;;;;;;5007340;28;20065;-63
2023/03/19 00:15:36;;;;;;;20.65;15.80;;;14.00;95.40;;;;;;5010606;28;20018;-63
2023/03/19 00:18:22;;;;;;;23.25;16.58;;;13.90;95.40;;;;;;5004917;28;20026;-62
2023/03/19 00:21:08;;;;;;;21.15;16.35;;;13.90;95.50;;;;;;5009047;28;20041;-62
2023/03/19 00:23:59;;;;;;;18.88;14.82;;;13.90;95.50;;;;;;4991255;28;20566;-63
2023/03/19 00:26:45;;;;;;;19.95;15.93;;;13.90;95.50;;;;;;5012291;28;20049;-61
2023/03/19 00:29:31;;;;;;;20.90;16.08;;;13.90;95.40;;;;;;5011624;28;20030;-64
2023/03/19 00:32:17;;;;;;;19.80;15.27;;;13.90;95.40;;;;;;5011486;28;20242;-64
2023/03/19 00:35:07;;;;;;;17.95;15.25;;;13.90;95.50;;;;;;5011133;28;20406;-64
2023/03/19 00:37:54;;;;;;;21.73;15.32;;;13.80;95.60;;;;;;5010861;28;20030;-63
2023/03/19 00:40:40;;;;;;;19.73;14.68;;;13.80;95.60;;;;;;5010228;28;20119;-63
2023/03/19 00:43:26;;;;;;;18.80;14.27;;;13.70;95.60;;;;;;5010896;28;20030;-64
2023/03/19 00:46:13;;;;;;;15.40;13.30;;;13.70;95.80;;;;;;4996922;28;20085;-65
2023/03/19 00:48:59;;;;;;;16.80;11.93;;;13.60;95.90;;;;;;4992395;28;20113;-63
2023/03/19 00:51:48;;;;;;;16.05;12.20;;;13.60;95.70;;;;;;4992797;28;20513;-64
2023/03/19 00:54:34;;;;;;;14.10;10.90;;;13.60;95.70;;;;;;4992809;28;20042;-63
2023/03/19 00:57:20;;;;;;;16.38;11.27;;;13.60;95.60;;;;;;4964768;28;20026;-62
2023/03/19 01:00:07;;;;;;;16.77;11.65;;;13.70;95.50;;;;;;5007979;28;20045;-63
2023/03/19 01:02:53;;;;;;;17.90;11.73;;;13.60;95.30;;;;;;5010418;28;20022;-62
2023/03/19 01:05:40;;;;;;;16.00;11.60;;;13.70;95.20;;;;;;5009879;28;20019;-63
2023/03/19 01:08:26;;;;;;;17.63;11.90;;;13.60;95.30;;;;;;4996574;28;20395;-63
2023/03/19 01:11:15;;;;;;;14.23;11.13;;;13.60;95.30;;;;;;5010739;28;20058;-63
2023/03/19 01:14:02;;;;;;;18.17;11.93;;;13.50;95.20;;;;;;5010542;28;20033;-62
2023/03/19 01:16:48;;;;;;;16.63;11.90;;;13.30;95.40;;;;;;5009995;28;20045;-62
2023/03/19 01:19:34;;;;;;;14.75;12.00;;;13.20;95.60;;;;;;5010165;28;20041;-62
2023/03/19 01:22:20;;;;;;;15.57;11.52;;;13.30;95.50;;;;;;5010993;28;20030;-63
2023/03/19 01:25:07;;;;;;;17.60;12.25;;;13.30;95.40;;;;;;4996989;28;20088;-62
2023/03/19 01:27:53;;;;;;;12.07;10.77;;;13.20;95.50;;;;;;5012310;28;20036;-63
2023/03/19 01:30:39;;;;;;;13.30;11.07;;;13.20;95.60;;;;;;4993099;28;20049;-63
2023/03/19 01:33:26;;;;;;;13.05;11.23;;;13.30;95.50;;;;;;4995740;28;20026;-62
2023/03/19 01:36:12;;;;;;;17.48;12.50;;;13.30;95.60;;;;;;5000728;28;20402;-63
2023/03/19 01:38:58;;;;;;;15.88;11.95;;;13.30;95.70;;;;;;5015885;28;20026;-62
2023/03/19 01:41:44;;;;;;;15.90;12.27;;;13.30;95.80;;;;;;5014373;28;20030;-65
2023/03/19 01:44:34;;;;;;;16.92;12.13;;;13.30;95.80;;;;;;5013881;28;20029;-62
2023/03/19 01:47:34;;;;;;;14.85;11.43;;;13.30;95.90;;;;;;5014112;28;20026;-61
2023/03/19 01:50:27;;;;;;;17.15;11.38;;;13.30;95.90;;;;;;5015497;28;20021;-62
2023/03/19 01:53:16;;;;;;;14.85;13.13;;;13.20;96.00;;;;;;5015415;28;20025;-61
2023/03/19 01:56:08;;;;;;;17.85;13.55;;;13.20;95.90;;;;;;5012370;28;20042;-61
2023/03/19 01:58:57;;;;;;;16.75;13.35;;;13.20;96.00;;;;;;5007477;28;20049;-62
2023/03/19 02:01:57;;;;;;;16.63;12.05;;;13.20;96.00;;;;;;4981324;28;20042;-62
2023/03/19 02:04:46;;;;;;;14.85;12.23;;;13.20;96.20;;;;;;4995043;28;20034;-62
2023/03/19 02:07:34;;;;;;;14.88;11.95;;;13.30;96.30;;;;;;4981152;28;20060;-63
2023/03/19 02:10:21;;;;;;;17.80;12.30;;;13.30;96.00;;;;;;4995003;28;20522;-62
2023/03/19 02:13:07;;;;;;;17.35;13.07;;;13.30;95.90;;;;;;4994802;28;20080;-61
2023/03/19 02:15:54;;;;;;;16.33;12.45;;;13.20;95.50;;;;;;5014457;28;20467;-62
2023/03/19 02:18:40;;;;;;;14.93;12.48;;;13.10;95.50;;;;;;4999519;28;20014;-61
2023/03/19 02:21:26;;;;;;;17.27;12.48;;;13.10;95.40;;;;;;4999770;28;20364;-61
2023/03/19 02:24:24;;;;;;;17.17;12.25;;;13.10;95.50;;;;;;5013205;28;20033;-57
2023/03/19 02:27:10;;;;;;;14.50;11.77;;;13.10;95.50;;;;;;4993686;28;20027;-59
2023/03/19 02:29:56;;;;;;;15.93;11.63;;;13.10;95.30;;;;;;4994824;28;20089;-56
2023/03/19 02:32:43;;;;;;;14.75;11.80;;;13.10;95.20;;;;;;4980085;28;20109;-54
2023/03/19 02:35:32;;;;;;;16.80;12.60;;;13.20;95.20;;;;;;4980783;28;20049;-55
2023/03/19 02:38:22;;;;;;;16.88;11.23;;;13.20;95.20;;;;;;4978943;28;20030;-58
2023/03/19 02:41:08;;;;;;;15.50;11.80;;;13.20;95.10;;;;;;4994019;28;20026;-58
2023/03/19 02:43:56;;;;;;;14.02;12.13;;;13.20;95.10;;;;;;4994009;28;20534;-57
2023/03/19 02:46:42;;;;;;;17.35;11.63;;;13.20;95.00;;;;;;4978679;28;20041;-58
2023/03/19 02:49:28;;;;;;;15.02;11.73;;;13.10;95.10;;;;;;4979969;28;20034;-57
2023/03/19 02:52:16;;;;;;;17.38;13.80;;;13.10;95.00;;;;;;4993718;28;20104;-60
2023/03/19 02:55:02;;;;;;;13.95;11.70;;;12.90;95.70;;;;;;4993305;28;20113;-60
2023/03/19 02:57:48;;;;;;;20.02;13.40;;;12.80;95.90;;;;;;4993523;28;20023;-62
2023/03/19 03:00:34;;;;;;;16.55;13.43;;;12.60;96.40;;;;;;4983391;28;20034;-58
2023/03/19 03:03:20;;;;;;;17.42;13.90;;;12.50;96.90;;;;;;4998689;28;20026;-61
2023/03/19 03:06:06;;;;;;;15.60;13.13;;;12.50;97.10;;;;;;4998636;28;20026;-60
2023/03/19 03:08:52;;;;;;;18.27;14.40;;;12.50;97.00;;;;;;5011998;28;20034;-58
2023/03/19 03:11:40;;;;;;;16.65;13.10;;;12.40;97.30;;;;;;4997680;28;20528;-54
2023/03/19 03:14:26;;;;;;;17.92;13.70;;;12.40;97.40;;;;;;5012251;28;20033;-55
2023/03/19 03:17:13;;;;;;;19.33;13.55;;;12.40;97.40;;;;;;5011035;28;20022;-59
2023/03/19 03:19:59;;;;;;;16.35;13.18;;;12.50;97.50;;;;;;5012322;28;20030;-57
2023/03/19 03:22:45;;;;;;;19.77;12.82;;;12.50;97.40;;;;;;5012068;28;20510;-57
2023/03/19 03:25:31;;;;;;;16.17;13.82;;;12.50;97.40;;;;;;4997489;28;20383;-60
2023/03/19 03:28:18;;;;;;;16.02;13.70;;;12.60;97.40;;;;;;5012312;28;20029;-57
2023/03/19 03:31:04;;;;;;;17.17;12.25;;;12.60;97.30;;;;;;5012602;28;20022;-56
2023/03/19 03:33:49;;;;;;;17.73;13.77;;;12.60;97.40;;;;;;5012267;28;20037;-59
2023/03/19 03:36:36;;;;;;;17.20;13.80;;;12.70;97.30;;;;;;5012002;28;20394;-58
2023/03/19 03:39:22;;;;;;;17.35;13.50;;;12.70;97.20;;;;;;4997316;28;20104;-58
2023/03/19 03:42:08;;;;;;;14.13;12.35;;;12.70;97.30;;;;;;4997652;28;20026;-57
2023/03/19 03:44:54;;;;;;;15.93;14.23;;;12.70;97.30;;;;;;5011558;28;20033;-55
2023/03/19 03:47:41;;;;;;;18.05;13.77;;;12.70;97.30;;;;;;4984512;28;20072;-57
2023/03/19 03:50:26;;;;;;;15.35;12.68;;;12.70;97.30;;;;;;4998722;28;20246;-58
2023/03/19 03:53:13;;;;;;;16.58;12.73;;;12.70;97.40;;;;;;5011361;28;20021;-55
2023/03/19 03:55:59;;;;;;;17.88;14.00;;;12.70;97.40;;;;;;5011091;28;20157;-64
2023/03/19 03:58:45;;;;;;;15.77;13.50;;;12.60;97.50;;;;;;5011555;28;20018;-57
2023/03/19 04:01:31;;;;;;;17.55;13.07;;;12.60;97.40;;;;;;5011608;28;20094;-57
2023/03/19 04:04:18;;;;;;;17.00;13.15;;;12.60;97.40;;;;;;5012222;28;20034;-56
2023/03/19 04:07:05;;;;;;;19.35;14.05;;;12.60;97.40;;;;;;4997736;28;20026;-57
2023/03/19 04:09:51;;;;;;;14.95;13.30;;;12.50;97.50;;;;;;4984928;28;20029;-58
2023/03/19 04:12:38;;;;;;;16.17;13.98;;;12.50;97.50;;;;;;5013531;28;20093;-58
2023/03/19 04:15:24;;;;;;;14.70;12.90;;;12.40;97.70;;;;;;5012290;28;20038;-60
2023/03/19 04:18:10;;;;;;;16.75;13.38;;;12.40;97.80;;;;;;4997459;28;20018;-62
2023/03/19 04:20:56;;;;;;;18.65;13.50;;;12.40;97.80;;;;;;5012135;28;20030;-61
2023/03/19 04:23:42;;;;;;;18.42;14.88;;;12.40;97.80;;;;;;5012369;28;20029;-63
2023/03/19 04:26:28;;;;;;;18.65;14.15;;;12.40;97.80;;;;;;4998465;28;20038;-61
2023/03/19 04:29:15;;;;;;;16.08;12.98;;;12.30;97.80;;;;;;5012870;28;20521;-60
2023/03/19 04:32:01;;;;;;;21.67;14.57;;;12.20;97.90;;;;;;5012030;28;20041;-59
2023/03/19 04:34:47;;;;;;;16.20;13.77;;;12.20;98.00;;;;;;4998536;28;20041;-61
2023/03/19 04:37:33;;;;;;;17.77;13.93;;;12.20;98.00;;;;;;5012798;28;20185;-60
2023/03/19 04:40:19;;;;;;;16.50;12.73;;;12.10;98.00;;;;;;5015030;28;20076;-59
2023/03/19 04:43:06;;;;;;;15.73;13.45;;;12.10;98.30;;;;;;5010879;28;20054;-61
2023/03/19 04:45:52;;;;;;;20.25;14.00;;;12.00;98.30;;;;;;5012220;28;20034;-58
2023/03/19 04:48:38;;;;;;;19.77;14.90;;;12.00;98.30;;;;;;5000414;28;20026;-57
2023/03/19 04:51:25;;;;;;;18.83;14.15;;;12.10;98.50;;;;;;4977079;28;20076;-61
2023/03/19 04:54:11;;;;;;;16.67;13.52;;;12.10;98.40;;;;;;4991208;28;20034;-57
2023/03/19 04:56:57;;;;;;;18.90;14.95;;;12.00;98.40;;;;;;4991685;28;20022;-58
2023/03/19 04:59:43;;;;;;;16.42;13.68;;;11.90;98.70;;;;;;4989619;28;20489;-56
2023/03/19 05:02:28;;;;;;;18.90;14.52;;;11.80;98.70;;;;;;4995992;28;20030;-56
2023/03/19 05:05:15;;;;;;;19.92;14.48;;;11.80;98.80;;;;;;5009958;28;20026;-55
2023/03/19 05:08:01;;;;;;;18.90;14.55;;;11.80;98.90;;;;;;4996090;28;20569;-56
2023/03/19 05:10:46;;;;;;;18.63;13.90;;;11.80;98.90;;;;;;5013922;28;20049;-56
2023/03/19 05:13:32;;;;;;;16.80;13.68;;;11.80;99.00;;;;;;5013872;28;20026;-54
2023/03/19 05:16:19;;;;;;;18.65;14.15;;;11.80;99.00;;;;;;4999556;28;20573;-64
2023/03/19 05:19:05;;;;;;;19.92;14.63;;;11.80;99.00;;;;;;5014120;28;20029;-57
2023/03/19 05:21:51;;;;;;;18.55;15.27;;;11.70;99.10;;;;;;5014500;28;20026;-61
2023/03/19 05:24:37;;;;;;;19.67;15.32;;;11.60;99.10;;;;;;4998584;28;20104;-61
2023/03/19 05:27:23;;;;;;;17.58;14.93;;;11.50;99.40;;;;;;5000513;28;20030;-59
2023/03/19 05:30:09;;;;;;;18.58;16.55;;;11.50;99.60;;;;;;5001901;28;20026;-60
2023/03/19 05:32:57;;;;;;;20.38;16.38;;;11.40;99.90;;;;;;5017094;28;20401;-54
2023/03/19 05:35:43;;;;;;;20.15;16.65;;;11.40;99.90;;;;;;4999095;28;20022;-54
2023/03/19 05:38:29;;;;;;;32.33;24.02;;;11.40;99.90;;;;;;5013954;28;20030;-54
2023/03/19 05:41:15;;;;;;;24.88;17.45;;;11.30;99.90;;;;;;5014296;28;20026;-59
2023/03/19 05:44:01;;;;;;;19.13;16.17;;;11.20;99.90;;;;;;5014202;28;20038;-61
2023/03/19 05:46:48;;;;;;;19.13;15.38;;;11.10;99.90;;;;;;5013588;28;20053;-57
2023/03/19 05:49:34;;;;;;;18.75;15.88;;;11.10;99.90;;;;;;5013930;28;20037;-53
2023/03/19 05:52:20;;;;;;;20.80;15.85;;;11.20;99.90;;;;;;5001112;28;20062;-54
2023/03/19 05:55:07;;;;;;;21.33;17.35;;;11.10;99.90;;;;;;5013253;28;20053;-55
2023/03/19 05:57:53;;;;;;;18.77;15.20;;;11.20;99.90;;;;;;5012805;28;20104;-53
2023/03/19 06:00:39;;;;;;;20.00;15.10;;;11.20;99.90;;;;;;4994429;28;20031;-54
2023/03/19 06:03:26;;;;;;;16.90;14.57;;;11.30;99.90;;;;;;4981419;28;20029;-52
2023/03/19 06:06:11;;;;;;;21.00;15.68;;;11.40;99.90;;;;;;4980639;28;20042;-56
2023/03/19 06:08:57;;;;;;;18.02;15.00;;;11.50;99.90;;;;;;4981913;28;20034;-58
2023/03/19 06:11:43;;;;;;;20.00;16.05;;;11.50;99.90;;;;;;4996331;28;20054;-54
2023/03/19 06:14:29;;;;;;;19.40;16.95;;;11.50;99.90;;;;;;4995625;28;20693;-57
2023/03/19 06:17:16;;;;;;;20.73;15.63;;;11.50;99.90;;;;;;5003883;28;20026;-61
2023/03/19 06:20:02;;;;;;;19.25;13.88;;;11.60;99.90;;;;;;4989921;28;20029;-64
2023/03/19 06:22:48;;;;;;;17.60;14.55;;;11.60;99.90;;;;;;4989698;28;20499;-61
2023/03/19 06:25:34;;;;;;;17.65;13.93;;;11.70;99.90;;;;;;4989585;28;20061;-61
2023/03/19 06:28:20;;;;;;;17.52;15.57;;;11.80;99.90;;;;;;5005318;28;20050;-61
2023/03/19 06:31:05;;;;;;;18.40;15.38;;;11.90;99.90;;;;;;5008929;28;20031;-60
2023/03/19 06:33:52;;;;;;;18.33;14.70;;;11.90;99.90;;;;;;5000519;28;20052;-59
2023/03/19 06:36:38;;;;;;;17.98;14.18;;;11.90;99.90;;;;;;5006827;28;20371;-60
2023/03/19 06:39:24;;;;;;;18.67;14.20;;;11.90;99.90;;;;;;5022517;28;20026;-59
2023/03/19 06:42:10;;;;;;;19.75;14.88;;;11.90;99.90;;;;;;5009597;28;20034;-60
2023/03/19 06:44:56;;;;;;;17.85;14.90;;;11.70;99.60;;;;;;5010799;28;20045;-61
2023/03/19 06:47:42;;;;;;;18.08;13.95;;;11.60;99.90;;;;;;5024559;28;20053;-60
2023/03/19 06:50:28;;;;;;;18.35;14.32;;;11.50;99.90;;;;;;5012401;28;20056;-59
2023/03/19 06:53:14;;;;;;;17.90;14.25;;;11.40;99.90;;;;;;5025931;28;20029;-59
2023/03/19 06:56:00;;;;;;;16.38;13.95;;;11.30;99.90;;;;;;5025410;28;20026;-60
2023/03/19 06:58:46;;;;;;;17.73;14.48;;;11.40;99.90;;;;;;5001242;28;20026;-57
2023/03/19 07:01:32;;;;;;;19.27;13.77;;;11.50;99.90;;;;;;5012922;28;20026;-59
2023/03/19 07:04:18;;;;;;;18.95;14.68;;;11.60;99.90;;;;;;5012742;28;20066;-58
2023/03/19 07:07:04;;;;;;;16.38;13.20;;;11.80;99.90;;;;;;5013270;28;20065;-58
2023/03/19 07:09:50;;;;;;;18.27;14.60;;;11.90;99.90;;;;;;4998724;28;20407;-55
2023/03/19 07:12:36;;;;;;;16.73;14.80;;;12.00;99.90;;;;;;4999307;28;20076;-55
2023/03/19 07:15:22;;;;;;;17.42;14.77;;;12.20;99.90;;;;;;5012297;28;20029;-55
2023/03/19 07:18:08;;;;;;;18.65;14.45;;;12.20;99.90;;;;;;5012032;28;20028;-57
2023/03/19 07:20:54;;;;;;;27.27;21.25;;;12.30;99.90;;;;;;5011541;28;20466;-54
2023/03/19 07:23:40;;;;;;;22.83;18.10;;;12.40;99.90;;;;;;4997665;28;20030;-56
2023/03/19 07:26:26;;;;;;;22.90;18.77;;;12.50;99.80;;;;;;5011606;28;20395;-58
2023/03/19 07:29:12;;;;;;;21.23;14.70;;;12.70;99.60;;;;;;5012513;28;20080;-60
2023/03/19 07:31:58;;;;;;;16.65;13.20;;;12.90;99.50;;;;;;4997598;28;20061;-59
2023/03/19 07:34:44;;;;;;;16.45;13.10;;;13.00;99.20;;;;;;5013248;28;20034;-62
2023/03/19 07:37:31;;;;;;;15.50;13.13;;;13.10;98.90;;;;;;5012406;28;20022;-62
2023/03/19 07:40:17;;;;;;;16.42;13.48;;;13.30;99.00;;;;;;5011353;28;20129;-57
2023/03/19 07:43:03;;;;;;;14.55;13.05;;;13.40;98.80;;;;;;4999378;28;20134;-59
2023/03/19 07:45:50;;;;;;;16.17;13.38;;;13.30;98.90;;;;;;4998636;28;20433;-60
2023/03/19 07:48:35;;;;;;;17.38;14.13;;;13.40;98.90;;;;;;4997255;28;20026;-59
2023/03/19 07:51:21;;;;;;;16.38;13.45;;;13.30;99.20;;;;;;5012503;28;20022;-58
2023/03/19 07:54:07;;;;;;;16.77;13.85;;;13.20;99.30;;;;;;5011559;28;20379;-56
2023/03/19 07:56:53;;;;;;;17.58;13.63;;;13.20;99.70;;;;;;4998471;28;20069;-62
2023/03/19 07:59:39;;;;;;;16.15;13.70;;;13.30;99.80;;;;;;5011147;28;20105;-59
2023/03/19 08:02:25;;;;;;;16.38;13.10;;;13.50;99.50;;;;;;5011405;28;20022;-60
2023/03/19 08:05:11;;;;;;;14.52;13.02;;;13.70;98.90;;;;;;5004558;28;20038;-55
2023/03/19 08:07:57;;;;;;;19.90;13.00;;;13.90;98.90;;;;;;5009459;28;20041;-61
2023/03/19 08:10:43;;;;;;;15.90;12.63;;;13.80;99.00;;;;;;4998165;28;20026;-57
2023/03/19 08:13:30;;;;;;;13.18;11.77;;;13.90;98.80;;;;;;5010156;28;20025;-63
2023/03/19 08:16:16;;;;;;;14.35;12.82;;;14.00;98.40;;;;;;5011321;28;20037;-60
2023/03/19 08:19:02;;;;;;;13.65;11.63;;;14.10;98.30;;;;;;5008704;28;20034;-58
2023/03/19 08:21:48;;;;;;;13.07;10.70;;;14.20;98.00;;;;;;5002052;28;20163;-62
2023/03/19 08:24:34;;;;;;;14.65;12.98;;;14.20;97.70;;;;;;5003906;28;20108;-60
2023/03/19 08:27:20;;;;;;;12.55;11.10;;;14.30;97.50;;;;;;5010390;28;20039;-60
2023/03/19 08:30:09;;;;;;;17.27;13.85;;;14.20;97.40;;;;;;5010613;28;20045;-61
2023/03/19 08:32:55;;;;;;;18.45;12.00;;;14.10;98.00;;;;;;5012713;28;20533;-59
2023/03/19 08:35:41;;;;;;;14.80;10.80;;;14.10;97.80;;;;;;5002301;28;20064;-61
2023/03/19 08:38:27;;;;;;;14.27;11.98;;;14.20;97.80;;;;;;5010744;28;20022;-61
2023/03/19 08:41:13;;;;;;;14.25;11.13;;;14.20;97.70;;;;;;4985077;28;20045;-59
2023/03/19 08:43:59;;;;;;;15.25;10.50;;;14.30;97.70;;;;;;5010267;28;20029;-58
2023/03/19 08:46:45;;;;;;;12.60;10.00;;;14.50;97.50;;;;;;5004118;28;20042;-58
2023/03/19 08:49:31;;;;;;;13.75;12.30;;;14.60;97.30;;;;;;5004596;28;20030;-55
2023/03/19 08:52:18;;;;;;;11.32;10.10;;;14.80;97.00;;;;;;5010192;28;20506;-62
2023/03/19 08:55:04;;;;;;;12.93;11.38;;;14.80;96.70;;;;;;5007941;28;20026;-59
2023/03/19 08:57:50;;;;;;;16.20;10.30;;;14.90;96.60;;;;;;4992921;28;20026;-62
2023/03/19 09:00:36;;;;;;;15.45;10.93;;;15.00;96.60;;;;;;5009578;28;20041;-68
2023/03/19 09:03:22;;;;;;;16.85;11.27;;;14.90;96.60;;;;;;5017952;28;20037;-60
2023/03/19 09:06:10;;;;;;;15.02;11.25;;;14.80;97.10;;;;;;5002067;28;20038;-61
2023/03/19 09:08:56;;;;;;;13.52;10.55;;;14.90;97.00;;;;;;5005186;28;20170;-59
2023/03/19 09:11:42;;;;;;;12.40;9.93;;;14.80;97.20;;;;;;5007448;28;20034;-59
2023/03/19 09:14:28;;;;;;;13.50;10.48;;;14.90;97.00;;;;;;4989064;28;20038;-58
2023/03/19 09:17:14;;;;;;;12.55;10.57;;;15.00;97.00;;;;;;4993289;28;20087;-57
2023/03/19 09:20:00;;;;;;;15.30;10.60;;;15.10;97.00;;;;;;4981518;28;20030;-60
2023/03/19 09:22:46;;;;;;;14.20;10.55;;;15.00;97.50;;;;;;4994944;28;20028;-57
2023/03/19 09:25:32;;;;;;;16.52;10.57;;;15.00;97.30;;;;;;5002540;28;20410;-59
2023/03/19 09:28:18;;;;;;;11.65;9.57;;;15.10;97.20;;;;;;5006626;28;20022;-63
2023/03/19 09:31:10;;;;;;;11.50;9.93;;;15.30;97.10;;;;;;4995533;28;20044;-62
2023/03/19 09:33:56;;;;;;;10.63;9.10;;;15.40;96.90;;;;;;5010255;28;20034;-61
2023/03/19 09:36:42;;;;;;;10.70;9.35;;;15.60;96.70;;;;;;4998927;28;20037;-61
2023/03/19 09:39:28;;;;;;;10.07;9.05;;;15.70;96.20;;;;;;4995538;28;20045;-56
2023/03/19 09:42:26;;;;;;;13.65;10.00;;;15.80;96.20;;;;;;4999460;28;20035;-60
2023/03/19 09:45:17;;;;;;;13.35;9.77;;;16.00;95.80;;;;;;4994990;28;20505;-62
2023/03/19 09:48:11;;;;;;;14.77;11.27;;;15.80;95.70;;;;;;4995452;28;20045;-60
2023/03/19 09:50:59;;;;;;;11.50;9.60;;;15.80;95.40;;;;;;5009682;28;20438;-64
2023/03/19 09:53:57;;;;;;;12.50;9.43;;;15.70;95.40;;;;;;4990506;28;20025;-60
2023/03/19 09:56:43;;;;;;;11.30;9.38;;;15.60;95.80;;;;;;5013418;28;20021;-59
2023/03/19 09:59:29;;;;;;;11.18;9.40;;;15.70;95.60;;;;;;4988908;28;20027;-57
2023/03/19 10:02:21;;;;;;;12.18;9.02;;;15.80;95.50;;;;;;4966835;28;20034;-55
2023/03/19 10:05:24;;;;;;;13.90;8.98;;;15.90;95.40;;;;;;4994339;28;20030;-54
2023/03/19 10:08:37;;;;;;;12.65;8.75;;;16.10;94.90;;;;;;4993135;28;20398;-53
2023/03/19 10:11:58;;;;;;;10.68;8.52;;;16.20;94.20;;;;;;4993800;28;20026;-54
2023/03/19 10:15:20;;;;;;;11.07;9.07;;;16.30;94.00;;;;;;4980294;28;20467;-58
2023/03/19 10:18:39;;;;;;;11.23;8.77;;;16.20;94.10;;;;;;4994470;28;20474;-55
2023/03/19 10:21:38;;;;;;;12.32;8.75;;;16.20;94.10;;;;;;4984977;28;20027;-61
2023/03/19 10:24:35;;;;;;;11.50;9.23;;;16.40;94.00;;;;;;4993962;28;20030;-61
2023/03/19 10:27:25;;;;;;;10.95;9.73;;;16.30;94.30;;;;;;4993433;28;20034;-60
2023/03/19 10:30:16;;;;;;;10.57;8.68;;;16.20;94.40;;;;;;4994508;28;20033;-56
2023/03/19 10:33:22;;;;;;;11.80;9.98;;;16.30;94.30;;;;;;4980861;28;20069;-58
2023/03/19 10:36:10;;;;;;;12.10;9.77;;;16.30;94.40;;;;;;5012288;28;20033;-60
2023/03/19 10:38:56;;;;;;;13.52;9.38;;;16.40;94.50;;;;;;5013125;28;20022;-58
2023/03/19 10:42:26;;;;;;;13.43;9.52;;;16.20;94.60;;;;;;5002262;28;20050;-57
2023/03/19 10:45:31;;;;;;;12.23;10.35;;;16.20;94.80;;;;;;4993257;28;20038;-56
2023/03/19 10:48:18;;;;;;;12.90;9.93;;;16.10;95.30;;;;;;4979530;28;20061;-57
2023/03/19 10:51:04;;;;;;;13.50;10.13;;;16.10;95.40;;;;;;4993267;28;20438;-60
2023/03/19 10:53:55;;;;;;;11.88;9.30;;;16.20;95.40;;;;;;4993367;28;20034;-55
2023/03/19 10:56:45;;;;;;;11.70;9.50;;;16.30;95.20;;;;;;4993186;28;20403;-56
2023/03/19 10:59:37;;;;;;;16.92;10.55;;;16.50;94.80;;;;;;4990591;28;20032;-57
2023/03/19 11:02:29;;;;;;;16.20;10.02;;;16.60;94.70;;;;;;5012614;28;20026;-58
2023/03/19 11:05:23;;;;;;;13.63;10.40;;;16.60;94.80;;;;;;5012005;28;20092;-55
2023/03/19 11:08:19;;;;;;;12.15;9.15;;;16.80;94.60;;;;;;4997241;28;20517;-55
2023/03/19 11:11:05;;;;;;;12.43;8.90;;;16.90;94.40;;;;;;5012863;28;20038;-57
2023/03/19 11:13:51;;;;;;;11.30;8.95;;;16.90;93.90;;;;;;5013753;28;20406;-60
2023/03/19 11:16:54;;;;;;;10.52;8.32;;;16.90;93.30;;;;;;5011570;28;20491;-58
2023/03/19 11:19:41;;;;;;;13.07;8.57;;;16.80;93.60;;;;;;5013785;28;20108;-57
2023/03/19 11:22:32;;;;;;;13.10;8.63;;;16.80;93.50;;;;;;4984491;28;20530;-59
2023/03/19 11:25:24;;;;;;;14.90;9.13;;;16.80;93.70;;;;;;4998376;28;20034;-59
2023/03/19 11:28:16;;;;;;;13.18;8.60;;;16.90;93.80;;;;;;4998150;28;20029;-55
2023/03/19 11:31:32;;;;;;;11.13;8.18;;;16.80;94.00;;;;;;4998331;28;20025;-56
2023/03/19 11:34:37;;;;;;;12.93;8.40;;;16.80;93.30;;;;;;4997640;28;20030;-56
2023/03/19 11:37:32;;;;;;;11.63;8.48;;;16.70;93.40;;;;;;5012337;28;20072;-56
2023/03/19 11:40:38;;;;;;;14.35;7.72;;;17.00;93.10;;;;;;5011921;28;20042;-55
2023/03/19 11:43:42;;;;;;;10.02;7.90;;;17.00;93.00;;;;;;4997796;28;20030;-54
2023/03/19 11:46:43;;;;;;;10.63;8.25;;;17.20;92.40;;;;;;4996747;28;20117;-56
2023/03/19 11:49:42;;;;;;;13.35;8.57;;;17.00;92.60;;;;;;5011201;28;20410;-54
2023/03/19 11:52:56;;;;;;;10.75;7.85;;;17.10;92.40;;;;;;5010661;28;20486;-56
2023/03/19 11:55:56;;;;;;;12.30;8.02;;;17.10;92.10;;;;;;5011153;28;20513;-57
2023/03/19 11:59:13;;;;;;;11.50;7.70;;;17.00;92.10;;;;;;5010492;28;20028;-57
2023/03/19 12:02:36;;;;;;;8.70;7.15;;;16.90;92.40;;;;;;5012012;28;20061;-59
2023/03/19 12:05:58;;;;;;;10.35;8.00;;;17.00;92.40;;;;;;5011416;28;20025;-58
2023/03/19 12:08:51;;;;;;;10.70;7.50;;;17.00;91.80;;;;;;5013042;28;20041;-60
2023/03/19 12:11:53;;;;;;;10.45;7.40;;;16.90;91.60;;;;;;4998212;28;20076;-56
2023/03/19 12:15:13;;;;;;;10.27;7.32;;;16.80;91.90;;;;;;5012053;28;20490;-56
2023/03/19 12:18:17;;;;;;;11.48;7.95;;;16.80;91.90;;;;;;5011270;28;20565;-55
2023/03/19 12:21:22;;;;;;;10.82;7.40;;;16.70;92.10;;;;;;5012774;28;20026;-59
2023/03/19 12:24:31;;;;;;;11.27;8.15;;;16.60;92.30;;;;;;4997555;28;20030;-61
2023/03/19 12:27:24;;;;;;;9.98;8.38;;;16.60;91.90;;;;;;4978305;28;20045;-63
2023/03/19 12:30:28;;;;;;;11.43;7.60;;;16.50;92.40;;;;;;4978357;28;20026;-64
2023/03/19 12:33:40;;;;;;;10.23;6.97;;;16.20;93.50;;;;;;4995177;28;20092;-63
2023/03/19 12:36:30;;;;;;;9.73;7.07;;;15.80;94.40;;;;;;5009727;28;20379;-62
2023/03/19 12:39:32;;;;;;;9.20;6.97;;;15.70;94.80;;;;;;5008256;28;20080;-62
2023/03/19 12:42:20;;;;;;;9.68;7.07;;;15.50;95.30;;;;;;4994850;28;20112;-63
2023/03/19 12:45:44;;;;;;;9.35;6.20;;;15.60;95.40;;;;;;5010748;28;20030;-65
2023/03/19 12:48:41;;;;;;;7.78;5.45;;;15.50;95.70;;;;;;5010971;28;20119;-63
2023/03/19 12:51:32;;;;;;;6.93;4.90;;;15.40;96.20;;;;;;5011779;28;20018;-64
2023/03/19 12:54:41;;;;;;;5.97;4.65;;;15.10;97.30;;;;;;4997122;28;20034;-66
2023/03/19 12:57:42;;;;;;;11.00;5.30;;;14.90;98.10;;;;;;5011439;28;20014;-62
2023/03/19 13:00:58;;;;;;;7.30;4.53;;;14.90;98.40;;;;;;4978004;28;20113;-63
2023/03/19 13:04:00;;;;;;;6.93;5.03;;;14.60;99.30;;;;;;4992082;28;20027;-64
2023/03/19 13:06:46;;;;;;;10.40;5.57;;;14.40;99.90;;;;;;4977158;28;20030;-64
2023/03/19 13:09:47;;;;;;;8.18;4.63;;;14.30;99.90;;;;;;4991615;28;20491;-64
2023/03/19 13:12:37;;;;;;;5.97;4.60;;;14.30;99.90;;;;;;4991341;28;20514;-61
2023/03/19 13:15:38;;;;;;;7.60;4.78;;;14.10;99.90;;;;;;4977488;28;20463;-63
2023/03/19 13:18:42;;;;;;;9.40;4.95;;;14.10;99.90;;;;;;4977703;28;20034;-63
2023/03/19 13:21:32;;;;;;;5.80;4.53;;;14.10;99.90;;;;;;4991771;28;20034;-62
2023/03/19 13:24:25;;;;;;;6.97;5.05;;;14.10;99.90;;;;;;4976868;28;20034;-61
2023/03/19 13:27:52;;;;;;;6.35;4.90;;;14.20;99.90;;;;;;4991541;28;20027;-65
2023/03/19 13:30:39;;;;;;;5.60;4.60;;;14.10;99.90;;;;;;4967285;28;20034;-63
2023/03/19 13:33:26;;;;;;;6.18;4.57;;;14.10;99.90;;;;;;4997548;28;20037;-64
2023/03/19 13:36:13;;;;;;;5.65;5.13;;;14.00;99.90;;;;;;5013639;28;20333;-62
2023/03/19 13:39:00;;;;;;;6.20;4.90;;;14.00;99.90;;;;;;5013808;28;20057;-65
2023/03/19 13:41:53;;;;;;;6.57;4.65;;;14.00;99.90;;;;;;4985986;28;20057;-63
2023/03/19 13:44:41;;;;;;;6.15;4.85;;;13.80;99.90;;;;;;5014391;28;20041;-64
2023/03/19 13:47:35;;;;;;;8.35;5.40;;;13.80;99.90;;;;;;5013059;28;20041;-62
2023/03/19 13:50:26;;;;;;;7.10;4.70;;;13.80;99.90;;;;;;5013482;28;20441;-64
2023/03/19 13:53:37;;;;;;;5.80;4.60;;;13.80;99.90;;;;;;5014007;28;20026;-62
2023/03/19 13:56:23;;;;;;;6.30;4.50;;;13.70;99.90;;;;;;5012860;28;20017;-62
2023/03/19 13:59:23;;;;;;;6.45;4.47;;;13.70;99.90;;;;;;4999038;28;20109;-63
2023/03/19 14:02:20;;;;;;;4.70;4.05;;;13.70;99.90;;;;;;5015286;28;20021;-64
2023/03/19 14:05:16;;;;;;;5.07;4.22;;;13.70;99.90;;;;;;5015252;28;20026;-64
2023/03/19 14:08:18;;;;;;;4.68;4.18;;;13.90;99.90;;;;;;5000472;28;20022;-64
2023/03/19 14:11:06;;;;;;;7.38;4.30;;;13.90;99.90;;;;;;5014174;28;20072;-64
2023/03/19 14:13:53;;;;;;;4.10;3.33;;;14.00;99.90;;;;;;4999834;28;20030;-64
2023/03/19 14:16:45;;;;;;;7.18;4.30;;;14.10;99.90;;;;;;5012915;28;20022;-65
2023/03/19 14:19:40;;;;;;;5.35;4.13;;;14.10;99.90;;;;;;5000157;28;20449;-63
2023/03/19 14:22:36;;;;;;;;;;;14.20;99.90;;;;;;5000755;28;20022;-64
2023/03/19 14:25:27;;;;;;;5.35;4.30;;;14.10;99.90;;;;;;5014378;28;19959;-63
2023/03/19 14:28:17;;;;;;;6.10;3.80;;;14.10;99.90;;;;;;5013884;28;20041;-64